Riviere-Saint-Jean, Canada
Current Conditions -  °F | °C
As of 9:00 AM on Thursday 30 Oct 2014 (Local Time) from CYGV Reporting Station
Overcast Overcast  
Wind Chill: 35°   Ceiling: 1200
Heat Index: 43°   Visibility: 9mi
Dew Point: 43°   Wind: 16mph
Humidity: 100%   Direction: 260°W
Pressure: 29.51"   Gusts: 23mph
Location:  50.28°N, 64.33°W
Report Text: CYGV 301300Z AUTO 26014G20KT 9SM OVC012 06/06 A2951 RMK SLP993
Loading
Personal Weather Stations






























Interactive Weather Map
Tropical Storm Tracking
New forecast layout! Learn more

10-Day Weather Forecast

Advertisements
Track Severe Weather on mobile